sensor_id;sensor_type;location;lat;lon;timestamp;P1;durP1;ratioP1;P2;durP2;ratioP2
31306;SDS011;17935;51.120;13.132;2023-05-29T04:07:38;9.82;;;5.63;;
31306;SDS011;17935;51.120;13.132;2023-05-29T04:10:05;12.02;;;6.82;;
31306;SDS011;17935;51.120;13.132;2023-05-29T04:12:34;9.75;;;6.18;;
31306;SDS011;17935;51.120;13.132;2023-05-29T04:15:00;11.00;;;5.75;;
31306;SDS011;17935;51.120;13.132;2023-05-29T04:17:26;7.68;;;6.43;;
31306;SDS011;17935;51.120;13.132;2023-05-29T04:19:52;8.20;;;5.75;;
31306;SDS011;17935;51.120;13.132;2023-05-29T04:22:18;8.38;;;6.25;;
31306;SDS011;17935;51.120;13.132;2023-05-29T04:24:45;7.53;;;5.60;;
31306;SDS011;17935;51.120;13.132;2023-05-29T04:27:11;9.52;;;5.70;;
31306;SDS011;17935;51.120;13.132;2023-05-29T04:29:39;9.27;;;5.55;;
31306;SDS011;17935;51.120;13.132;2023-05-29T04:32:07;11.57;;;5.80;;
31306;SDS011;17935;51.120;13.132;2023-05-29T04:34:34;10.63;;;5.57;;
31306;SDS011;17935;51.120;13.132;2023-05-29T04:37:01;7.47;;;5.30;;
31306;SDS011;17935;51.120;13.132;2023-05-29T04:39:28;11.35;;;6.85;;
31306;SDS011;17935;51.120;13.132;2023-05-29T04:41:54;6.88;;;4.90;;
31306;SDS011;17935;51.120;13.132;2023-05-29T04:44:23;10.30;;;6.18;;
31306;SDS011;17935;51.120;13.132;2023-05-29T04:46:50;9.63;;;6.22;;
31306;SDS011;17935;51.120;13.132;2023-05-29T04:49:17;9.05;;;6.45;;
31306;SDS011;17935;51.120;13.132;2023-05-29T04:51:43;6.00;;;5.13;;
31306;SDS011;17935;51.120;13.132;2023-05-29T04:54:10;8.80;;;5.50;;
31306;SDS011;17935;51.120;13.132;2023-05-29T04:56:36;9.73;;;4.70;;
31306;SDS011;17935;51.120;13.132;2023-05-29T04:59:05;6.70;;;5.80;;
31306;SDS011;17935;51.120;13.132;2023-05-29T05:01:31;6.40;;;5.20;;
31306;SDS011;17935;51.120;13.132;2023-05-29T05:03:58;12.50;;;5.50;;
31306;SDS011;17935;51.120;13.132;2023-05-29T05:06:24;6.63;;;5.32;;
31306;SDS011;17935;51.120;13.132;2023-05-29T05:08:51;9.00;;;5.43;;
31306;SDS011;17935;51.120;13.132;2023-05-29T05:11:18;7.40;;;6.30;;
31306;SDS011;17935;51.120;13.132;2023-05-29T05:13:44;7.65;;;5.18;;
31306;SDS011;17935;51.120;13.132;2023-05-29T05:16:10;7.70;;;4.95;;
31306;SDS011;17935;51.120;13.132;2023-05-29T05:18:36;9.75;;;5.35;;
31306;SDS011;17935;51.120;13.132;2023-05-29T05:21:02;5.85;;;4.95;;
31306;SDS011;17935;51.120;13.132;2023-05-29T05:23:29;6.97;;;5.13;;
31306;SDS011;17935;51.120;13.132;2023-05-29T05:25:55;8.25;;;4.70;;
31306;SDS011;17935;51.120;13.132;2023-05-29T05:28:21;6.88;;;4.22;;
31306;SDS011;17935;51.120;13.132;2023-05-29T05:30:47;5.72;;;4.68;;
31306;SDS011;17935;51.120;13.132;2023-05-29T05:33:13;5.75;;;4.30;;
31306;SDS011;17935;51.120;13.132;2023-05-29T05:35:39;6.40;;;4.25;;
31306;SDS011;17935;51.120;13.132;2023-05-29T05:38:05;6.03;;;4.55;;
31306;SDS011;17935;51.120;13.132;2023-05-29T05:40:31;7.43;;;4.57;;
31306;SDS011;17935;51.120;13.132;2023-05-29T05:42:57;6.32;;;4.57;;
31306;SDS011;17935;51.120;13.132;2023-05-29T05:45:23;7.05;;;5.00;;
31306;SDS011;17935;51.120;13.132;2023-05-29T05:47:49;4.18;;;3.75;;
31306;SDS011;17935;51.120;13.132;2023-05-29T05:50:15;8.18;;;4.63;;
31306;SDS011;17935;51.120;13.132;2023-05-29T05:52:41;6.80;;;4.22;;
31306;SDS011;17935;51.120;13.132;2023-05-29T05:55:07;6.68;;;4.20;;
31306;SDS011;17935;51.120;13.132;2023-05-29T05:57:33;11.13;;;5.07;;
31306;SDS011;17935;51.120;13.132;2023-05-29T06:00:00;5.60;;;4.20;;
31306;SDS011;17935;51.120;13.132;2023-05-29T06:02:29;4.07;;;3.65;;
31306;SDS011;17935;51.120;13.132;2023-05-29T06:04:55;4.47;;;3.95;;
31306;SDS011;17935;51.120;13.132;2023-05-29T06:07:21;5.13;;;4.05;;
31306;SDS011;17935;51.120;13.132;2023-05-29T06:09:48;5.53;;;3.85;;
31306;SDS011;17935;51.120;13.132;2023-05-29T06:12:14;6.25;;;4.22;;
31306;SDS011;17935;51.120;13.132;2023-05-29T06:14:40;7.80;;;4.25;;
31306;SDS011;17935;51.120;13.132;2023-05-29T06:17:06;5.07;;;3.72;;
31306;SDS011;17935;51.120;13.132;2023-05-29T06:19:32;6.72;;;3.67;;
31306;SDS011;17935;51.120;13.132;2023-05-29T06:21:58;7.25;;;3.80;;
31306;SDS011;17935;51.120;13.132;2023-05-29T06:24:24;5.53;;;4.00;;
31306;SDS011;17935;51.120;13.132;2023-05-29T06:26:50;7.05;;;4.53;;
31306;SDS011;17935;51.120;13.132;2023-05-29T06:29:16;5.65;;;3.83;;
31306;SDS011;17935;51.120;13.132;2023-05-29T06:31:42;4.30;;;3.90;;
31306;SDS011;17935;51.120;13.132;2023-05-29T06:34:08;4.43;;;3.88;;
31306;SDS011;17935;51.120;13.132;2023-05-29T06:36:34;5.88;;;3.90;;
31306;SDS011;17935;51.120;13.132;2023-05-29T06:39:00;7.00;;;4.25;;
31306;SDS011;17935;51.120;13.132;2023-05-29T06:41:26;7.65;;;3.95;;
31306;SDS011;17935;51.120;13.132;2023-05-29T06:43:52;5.05;;;3.85;;
31306;SDS011;17935;51.120;13.132;2023-05-29T06:46:18;4.47;;;3.72;;
31306;SDS011;17935;51.120;13.132;2023-05-29T06:48:44;6.20;;;3.95;;
31306;SDS011;17935;51.120;13.132;2023-05-29T06:51:10;4.18;;;3.78;;
31306;SDS011;17935;51.120;13.132;2023-05-29T06:53:37;8.07;;;4.28;;
31306;SDS011;17935;51.120;13.132;2023-05-29T06:56:03;5.05;;;3.42;;
31306;SDS011;17935;51.120;13.132;2023-05-29T06:58:30;4.65;;;3.88;;
31306;SDS011;17935;51.120;13.132;2023-05-29T07:00:56;7.85;;;4.13;;
31306;SDS011;17935;51.120;13.132;2023-05-29T07:03:22;5.75;;;3.75;;
31306;SDS011;17935;51.120;13.132;2023-05-29T07:05:48;6.78;;;3.83;;
31306;SDS011;17935;51.120;13.132;2023-05-29T07:08:14;5.30;;;4.63;;
31306;SDS011;17935;51.120;13.132;2023-05-29T07:10:39;4.25;;;3.85;;
31306;SDS011;17935;51.120;13.132;2023-05-29T07:13:05;6.65;;;4.38;;
31306;SDS011;17935;51.120;13.132;2023-05-29T07:15:31;4.07;;;3.78;;
31306;SDS011;17935;51.120;13.132;2023-05-29T07:17:57;7.32;;;3.45;;
31306;SDS011;17935;51.120;13.132;2023-05-29T07:20:23;4.05;;;3.65;;
31306;SDS011;17935;51.120;13.132;2023-05-29T07:22:49;4.47;;;3.47;;
31306;SDS011;17935;51.120;13.132;2023-05-29T07:25:15;3.63;;;3.25;;
31306;SDS011;17935;51.120;13.132;2023-05-29T07:27:41;4.82;;;3.65;;
31306;SDS011;17935;51.120;13.132;2023-05-29T07:30:07;3.53;;;3.22;;
31306;SDS011;17935;51.120;13.132;2023-05-29T07:32:33;9.65;;;4.35;;
31306;SDS011;17935;51.120;13.132;2023-05-29T07:34:59;3.92;;;3.47;;
31306;SDS011;17935;51.120;13.132;2023-05-29T07:37:25;4.25;;;3.47;;
31306;SDS011;17935;51.120;13.132;2023-05-29T07:39:51;5.32;;;3.40;;
31306;SDS011;17935;51.120;13.132;2023-05-29T07:42:17;4.47;;;3.25;;
31306;SDS011;17935;51.120;13.132;2023-05-29T07:44:44;3.88;;;3.38;;
31306;SDS011;17935;51.120;13.132;2023-05-29T07:47:10;4.43;;;3.50;;
31306;SDS011;17935;51.120;13.132;2023-05-29T07:49:36;9.77;;;4.18;;
31306;SDS011;17935;51.120;13.132;2023-05-29T07:52:03;4.72;;;3.30;;
31306;SDS011;17935;51.120;13.132;2023-05-29T07:54:29;5.18;;;3.05;;
31306;SDS011;17935;51.120;13.132;2023-05-29T07:56:57;12.43;;;4.10;;
31306;SDS011;17935;51.120;13.132;2023-05-29T07:59:23;6.45;;;3.63;;
31306;SDS011;17935;51.120;13.132;2023-05-29T08:01:49;7.07;;;3.20;;
31306;SDS011;17935;51.120;13.132;2023-05-29T08:04:15;10.02;;;3.45;;
31306;SDS011;17935;51.120;13.132;2023-05-29T08:06:41;6.75;;;3.50;;
31306;SDS011;17935;51.120;13.132;2023-05-29T08:09:08;4.47;;;3.00;;
31306;SDS011;17935;51.120;13.132;2023-05-29T08:11:35;5.57;;;2.97;;
31306;SDS011;17935;51.120;13.132;2023-05-29T08:14:01;6.93;;;2.88;;
31306;SDS011;17935;51.120;13.132;2023-05-29T08:16:27;4.45;;;3.25;;
31306;SDS011;17935;51.120;13.132;2023-05-29T08:18:53;3.55;;;3.13;;
31306;SDS011;17935;51.120;13.132;2023-05-29T08:21:20;5.03;;;3.20;;
31306;SDS011;17935;51.120;13.132;2023-05-29T08:23:45;2.90;;;2.70;;
31306;SDS011;17935;51.120;13.132;2023-05-29T08:26:11;3.63;;;2.70;;
31306;SDS011;17935;51.120;13.132;2023-05-29T08:28:38;6.53;;;2.90;;
31306;SDS011;17935;51.120;13.132;2023-05-29T08:31:04;4.80;;;2.88;;
31306;SDS011;17935;51.120;13.132;2023-05-29T08:33:30;8.80;;;2.97;;
31306;SDS011;17935;51.120;13.132;2023-05-29T08:35:57;5.07;;;2.80;;
31306;SDS011;17935;51.120;13.132;2023-05-29T08:38:23;3.83;;;2.88;;
31306;SDS011;17935;51.120;13.132;2023-05-29T08:40:50;7.32;;;3.20;;
31306;SDS011;17935;51.120;13.132;2023-05-29T08:43:22;5.60;;;2.75;;
31306;SDS011;17935;51.120;13.132;2023-05-29T08:45:53;4.90;;;2.75;;
31306;SDS011;17935;51.120;13.132;2023-05-29T08:48:21;3.83;;;2.78;;
31306;SDS011;17935;51.120;13.132;2023-05-29T08:50:49;3.58;;;3.03;;
31306;SDS011;17935;51.120;13.132;2023-05-29T08:53:18;4.90;;;2.88;;
31306;SDS011;17935;51.120;13.132;2023-05-29T08:55:44;3.50;;;2.83;;
31306;SDS011;17935;51.120;13.132;2023-05-29T08:58:15;3.50;;;2.70;;
31306;SDS011;17935;51.120;13.132;2023-05-29T09:00:42;3.30;;;3.00;;
31306;SDS011;17935;51.120;13.132;2023-05-29T09:03:08;3.97;;;2.83;;
31306;SDS011;17935;51.120;13.132;2023-05-29T09:05:34;5.30;;;2.50;;
31306;SDS011;17935;51.120;13.132;2023-05-29T09:08:04;3.60;;;2.67;;
31306;SDS011;17935;51.120;13.132;2023-05-29T09:10:30;3.30;;;2.90;;
31306;SDS011;17935;51.120;13.132;2023-05-29T09:12:57;3.70;;;3.00;;
31306;SDS011;17935;51.120;13.132;2023-05-29T09:15:23;3.53;;;2.58;;
31306;SDS011;17935;51.120;13.132;2023-05-29T09:17:50;4.10;;;2.72;;
31306;SDS011;17935;51.120;13.132;2023-05-29T09:20:17;4.75;;;2.50;;
31306;SDS011;17935;51.120;13.132;2023-05-29T09:22:52;5.68;;;2.72;;
31306;SDS011;17935;51.120;13.132;2023-05-29T09:25:20;3.05;;;2.80;;
31306;SDS011;17935;51.120;13.132;2023-05-29T09:27:47;4.38;;;2.30;;
31306;SDS011;17935;51.120;13.132;2023-05-29T09:30:16;5.00;;;2.85;;
31306;SDS011;17935;51.120;13.132;2023-05-29T09:32:56;7.28;;;2.75;;
31306;SDS011;17935;51.120;13.132;2023-05-29T09:35:22;6.75;;;2.60;;
31306;SDS011;17935;51.120;13.132;2023-05-29T09:37:48;3.28;;;2.47;;
31306;SDS011;17935;51.120;13.132;2023-05-29T09:40:15;8.45;;;2.90;;
31306;SDS011;17935;51.120;13.132;2023-05-29T09:42:41;9.35;;;2.80;;
31306;SDS011;17935;51.120;13.132;2023-05-29T09:45:07;2.67;;;2.45;;
31306;SDS011;17935;51.120;13.132;2023-05-29T09:47:33;3.88;;;2.35;;
31306;SDS011;17935;51.120;13.132;2023-05-29T09:50:00;5.35;;;2.55;;
31306;SDS011;17935;51.120;13.132;2023-05-29T09:52:26;4.32;;;2.22;;
31306;SDS011;17935;51.120;13.132;2023-05-29T09:54:55;9.55;;;2.47;;
31306;SDS011;17935;51.120;13.132;2023-05-29T09:57:22;5.38;;;2.20;;
31306;SDS011;17935;51.120;13.132;2023-05-29T09:59:48;4.18;;;2.50;;
31306;SDS011;17935;51.120;13.132;2023-05-29T10:02:16;3.55;;;2.47;;
31306;SDS011;17935;51.120;13.132;2023-05-29T10:04:42;6.57;;;2.75;;
31306;SDS011;17935;51.120;13.132;2023-05-29T10:07:20;9.15;;;3.25;;
31306;SDS011;17935;51.120;13.132;2023-05-29T10:09:50;4.90;;;2.85;;
31306;SDS011;17935;51.120;13.132;2023-05-29T10:12:19;4.72;;;3.40;;
31306;SDS011;17935;51.120;13.132;2023-05-29T10:14:49;8.40;;;3.35;;
31306;SDS011;17935;51.120;13.132;2023-05-29T10:17:15;7.93;;;3.33;;
31306;SDS011;17935;51.120;13.132;2023-05-29T10:19:44;10.20;;;3.42;;
31306;SDS011;17935;51.120;13.132;2023-05-29T10:22:12;6.88;;;3.80;;
31306;SDS011;17935;51.120;13.132;2023-05-29T10:24:38;5.88;;;3.55;;
31306;SDS011;17935;51.120;13.132;2023-05-29T10:27:04;5.65;;;3.63;;
31306;SDS011;17935;51.120;13.132;2023-05-29T10:34:45;5.45;;;3.30;;
31306;SDS011;17935;51.120;13.132;2023-05-29T10:37:16;4.95;;;3.17;;
31306;SDS011;17935;51.120;13.132;2023-05-29T10:39:44;4.97;;;3.35;;
31306;SDS011;17935;51.120;13.132;2023-05-29T10:44:54;7.03;;;4.22;;
31306;SDS011;17935;51.120;13.132;2023-05-29T10:47:23;9.30;;;3.78;;
31306;SDS011;17935;51.120;13.132;2023-05-29T10:49:50;6.47;;;3.65;;
31306;SDS011;17935;51.120;13.132;2023-05-29T10:52:18;5.68;;;3.28;;
31306;SDS011;17935;51.120;13.132;2023-05-29T10:54:52;5.80;;;3.33;;
31306;SDS011;17935;51.120;13.132;2023-05-29T10:57:20;4.85;;;3.00;;
31306;SDS011;17935;51.120;13.132;2023-05-29T10:59:47;6.70;;;3.25;;
31306;SDS011;17935;51.120;13.132;2023-05-29T11:02:19;5.45;;;3.03;;
31306;SDS011;17935;51.120;13.132;2023-05-29T11:05:03;6.95;;;2.83;;
31306;SDS011;17935;51.120;13.132;2023-05-29T11:07:33;6.60;;;2.50;;
31306;SDS011;17935;51.120;13.132;2023-05-29T11:10:12;6.07;;;3.15;;
31306;SDS011;17935;51.120;13.132;2023-05-29T11:12:56;5.65;;;3.17;;
31306;SDS011;17935;51.120;13.132;2023-05-29T11:15:25;6.15;;;3.35;;
31306;SDS011;17935;51.120;13.132;2023-05-29T11:17:51;3.58;;;2.58;;
31306;SDS011;17935;51.120;13.132;2023-05-29T11:25:24;3.63;;;3.00;;
31306;SDS011;17935;51.120;13.132;2023-05-29T11:27:50;7.82;;;2.85;;
31306;SDS011;17935;51.120;13.132;2023-05-29T11:30:20;10.07;;;2.78;;
31306;SDS011;17935;51.120;13.132;2023-05-29T11:32:46;7.90;;;2.88;;
31306;SDS011;17935;51.120;13.132;2023-05-29T11:35:12;5.20;;;2.60;;
31306;SDS011;17935;51.120;13.132;2023-05-29T11:37:39;4.72;;;3.10;;
31306;SDS011;17935;51.120;13.132;2023-05-29T11:40:08;6.28;;;2.40;;
31306;SDS011;17935;51.120;13.132;2023-05-29T11:42:35;5.90;;;3.00;;
31306;SDS011;17935;51.120;13.132;2023-05-29T11:45:11;5.63;;;3.00;;
31306;SDS011;17935;51.120;13.132;2023-05-29T11:48:00;8.43;;;3.42;;
31306;SDS011;17935;51.120;13.132;2023-05-29T11:50:29;5.70;;;3.00;;
31306;SDS011;17935;51.120;13.132;2023-05-29T11:52:55;7.97;;;3.50;;
31306;SDS011;17935;51.120;13.132;2023-05-29T11:55:22;6.80;;;3.10;;
31306;SDS011;17935;51.120;13.132;2023-05-29T11:57:49;10.05;;;3.53;;
31306;SDS011;17935;51.120;13.132;2023-05-29T12:00:15;6.45;;;2.95;;
31306;SDS011;17935;51.120;13.132;2023-05-29T12:02:42;4.82;;;3.20;;
31306;SDS011;17935;51.120;13.132;2023-05-29T12:05:08;6.55;;;3.08;;
31306;SDS011;17935;51.120;13.132;2023-05-29T12:07:38;4.10;;;3.10;;
31306;SDS011;17935;51.120;13.132;2023-05-29T12:12:36;5.88;;;3.42;;
31306;SDS011;17935;51.120;13.132;2023-05-29T12:15:02;6.78;;;3.40;;
31306;SDS011;17935;51.120;13.132;2023-05-29T12:17:30;6.65;;;2.60;;
31306;SDS011;17935;51.120;13.132;2023-05-29T12:19:56;12.65;;;3.40;;
31306;SDS011;17935;51.120;13.132;2023-05-29T12:22:37;5.03;;;3.17;;
31306;SDS011;17935;51.120;13.132;2023-05-29T12:25:05;5.78;;;3.25;;
31306;SDS011;17935;51.120;13.132;2023-05-29T12:27:32;5.93;;;3.20;;
31306;SDS011;17935;51.120;13.132;2023-05-29T12:30:02;4.80;;;3.05;;
31306;SDS011;17935;51.120;13.132;2023-05-29T12:32:38;5.50;;;3.53;;
31306;SDS011;17935;51.120;13.132;2023-05-29T12:37:41;6.60;;;3.33;;
31306;SDS011;17935;51.120;13.132;2023-05-29T12:40:20;7.22;;;3.45;;
31306;SDS011;17935;51.120;13.132;2023-05-29T12:42:46;7.80;;;3.53;;
31306;SDS011;17935;51.120;13.132;2023-05-29T12:45:13;6.22;;;3.38;;
31306;SDS011;17935;51.120;13.132;2023-05-29T12:47:55;5.93;;;3.15;;
31306;SDS011;17935;51.120;13.132;2023-05-29T12:50:22;7.18;;;3.60;;
31306;SDS011;17935;51.120;13.132;2023-05-29T12:52:52;6.25;;;3.25;;
31306;SDS011;17935;51.120;13.132;2023-05-29T12:55:19;6.22;;;3.08;;
31306;SDS011;17935;51.120;13.132;2023-05-29T12:57:45;4.45;;;3.25;;
31306;SDS011;17935;51.120;13.132;2023-05-29T13:00:11;7.43;;;3.35;;
31306;SDS011;17935;51.120;13.132;2023-05-29T13:02:37;5.00;;;2.95;;
31306;SDS011;17935;51.120;13.132;2023-05-29T13:05:04;7.60;;;3.67;;
31306;SDS011;17935;51.120;13.132;2023-05-29T13:07:30;8.65;;;3.20;;
31306;SDS011;17935;51.120;13.132;2023-05-29T13:09:56;6.03;;;3.63;;
31306;SDS011;17935;51.120;13.132;2023-05-29T13:12:22;7.32;;;3.63;;
31306;SDS011;17935;51.120;13.132;2023-05-29T13:14:48;5.53;;;3.45;;
31306;SDS011;17935;51.120;13.132;2023-05-29T13:17:15;8.93;;;3.28;;
31306;SDS011;17935;51.120;13.132;2023-05-29T13:19:41;5.63;;;3.67;;
31306;SDS011;17935;51.120;13.132;2023-05-29T13:22:07;8.63;;;3.30;;
31306;SDS011;17935;51.120;13.132;2023-05-29T13:24:32;6.45;;;3.58;;
31306;SDS011;17935;51.120;13.132;2023-05-29T13:26:58;6.78;;;3.38;;
31306;SDS011;17935;51.120;13.132;2023-05-29T13:29:25;8.90;;;3.70;;
31306;SDS011;17935;51.120;13.132;2023-05-29T13:31:51;5.25;;;2.95;;
31306;SDS011;17935;51.120;13.132;2023-05-29T13:34:17;6.75;;;3.08;;
31306;SDS011;17935;51.120;13.132;2023-05-29T13:36:43;5.85;;;3.17;;
31306;SDS011;17935;51.120;13.132;2023-05-29T13:39:12;6.90;;;3.33;;
31306;SDS011;17935;51.120;13.132;2023-05-29T13:41:38;10.25;;;3.25;;
31306;SDS011;17935;51.120;13.132;2023-05-29T13:44:04;4.68;;;3.35;;
31306;SDS011;17935;51.120;13.132;2023-05-29T13:46:30;5.78;;;3.20;;
31306;SDS011;17935;51.120;13.132;2023-05-29T13:48:56;5.97;;;3.22;;
31306;SDS011;17935;51.120;13.132;2023-05-29T13:51:22;4.97;;;2.80;;
31306;SDS011;17935;51.120;13.132;2023-05-29T13:53:48;6.28;;;3.45;;
31306;SDS011;17935;51.120;13.132;2023-05-29T13:56:14;6.03;;;3.45;;
31306;SDS011;17935;51.120;13.132;2023-05-29T13:58:40;4.97;;;3.55;;
31306;SDS011;17935;51.120;13.132;2023-05-29T14:01:06;7.85;;;3.70;;
31306;SDS011;17935;51.120;13.132;2023-05-29T14:03:32;7.30;;;3.70;;
31306;SDS011;17935;51.120;13.132;2023-05-29T14:05:59;7.32;;;3.78;;
31306;SDS011;17935;51.120;13.132;2023-05-29T14:08:25;5.53;;;3.55;;
31306;SDS011;17935;51.120;13.132;2023-05-29T14:10:51;7.13;;;3.50;;
31306;SDS011;17935;51.120;13.132;2023-05-29T14:13:17;6.38;;;3.20;;
31306;SDS011;17935;51.120;13.132;2023-05-29T14:15:43;4.93;;;3.40;;
31306;SDS011;17935;51.120;13.132;2023-05-29T14:18:09;7.65;;;3.55;;
31306;SDS011;17935;51.120;13.132;2023-05-29T14:20:35;4.70;;;3.30;;
31306;SDS011;17935;51.120;13.132;2023-05-29T14:23:01;6.88;;;3.78;;
31306;SDS011;17935;51.120;13.132;2023-05-29T14:25:27;5.95;;;3.35;;
31306;SDS011;17935;51.120;13.132;2023-05-29T14:27:53;11.25;;;4.82;;
31306;SDS011;17935;51.120;13.132;2023-05-29T14:30:18;6.60;;;4.18;;
31306;SDS011;17935;51.120;13.132;2023-05-29T14:32:44;5.18;;;3.50;;
31306;SDS011;17935;51.120;13.132;2023-05-29T14:35:10;11.77;;;3.70;;
31306;SDS011;17935;51.120;13.132;2023-05-29T14:37:36;11.93;;;3.67;;
31306;SDS011;17935;51.120;13.132;2023-05-29T14:40:02;5.13;;;3.28;;
31306;SDS011;17935;51.120;13.132;2023-05-29T14:42:28;6.63;;;3.80;;
31306;SDS011;17935;51.120;13.132;2023-05-29T14:44:54;5.43;;;3.38;;
31306;SDS011;17935;51.120;13.132;2023-05-29T14:47:20;5.45;;;3.63;;
31306;SDS011;17935;51.120;13.132;2023-05-29T14:49:46;6.70;;;3.63;;
31306;SDS011;17935;51.120;13.132;2023-05-29T14:52:12;9.30;;;3.72;;
31306;SDS011;17935;51.120;13.132;2023-05-29T14:54:38;6.47;;;3.38;;
31306;SDS011;17935;51.120;13.132;2023-05-29T14:57:04;7.78;;;3.70;;
31306;SDS011;17935;51.120;13.132;2023-05-29T14:59:30;6.60;;;3.53;;
31306;SDS011;17935;51.120;13.132;2023-05-29T15:01:56;7.50;;;3.55;;
31306;SDS011;17935;51.120;13.132;2023-05-29T15:04:24;6.47;;;3.75;;
31306;SDS011;17935;51.120;13.132;2023-05-29T15:06:50;6.70;;;3.63;;
31306;SDS011;17935;51.120;13.132;2023-05-29T15:09:18;7.50;;;3.92;;
31306;SDS011;17935;51.120;13.132;2023-05-29T15:11:46;7.70;;;3.60;;
31306;SDS011;17935;51.120;13.132;2023-05-29T15:14:12;5.45;;;3.38;;
31306;SDS011;17935;51.120;13.132;2023-05-29T15:16:39;6.13;;;3.38;;
31306;SDS011;17935;51.120;13.132;2023-05-29T15:19:05;6.57;;;3.95;;
31306;SDS011;17935;51.120;13.132;2023-05-29T15:21:31;9.50;;;3.67;;
31306;SDS011;17935;51.120;13.132;2023-05-29T15:23:57;9.10;;;3.80;;
31306;SDS011;17935;51.120;13.132;2023-05-29T15:26:23;5.90;;;3.35;;
31306;SDS011;17935;51.120;13.132;2023-05-29T15:28:49;8.13;;;3.38;;
31306;SDS011;17935;51.120;13.132;2023-05-29T15:31:15;4.75;;;3.13;;
31306;SDS011;17935;51.120;13.132;2023-05-29T15:33:42;8.05;;;4.50;;
31306;SDS011;17935;51.120;13.132;2023-05-29T15:36:08;6.57;;;3.42;;
31306;SDS011;17935;51.120;13.132;2023-05-29T15:38:34;9.52;;;3.80;;
31306;SDS011;17935;51.120;13.132;2023-05-29T15:41:00;5.05;;;3.35;;
31306;SDS011;17935;51.120;13.132;2023-05-29T15:43:26;7.82;;;3.97;;
31306;SDS011;17935;51.120;13.132;2023-05-29T15:45:52;11.05;;;3.78;;
31306;SDS011;17935;51.120;13.132;2023-05-29T15:48:18;9.57;;;3.58;;
31306;SDS011;17935;51.120;13.132;2023-05-29T15:50:44;7.35;;;3.92;;
31306;SDS011;17935;51.120;13.132;2023-05-29T15:53:10;8.18;;;3.67;;
31306;SDS011;17935;51.120;13.132;2023-05-29T15:55:36;7.97;;;3.42;;
31306;SDS011;17935;51.120;13.132;2023-05-29T15:58:01;10.18;;;4.28;;
31306;SDS011;17935;51.120;13.132;2023-05-29T16:00:27;3.95;;;3.53;;
31306;SDS011;17935;51.120;13.132;2023-05-29T16:02:53;5.40;;;3.47;;
31306;SDS011;17935;51.120;13.132;2023-05-29T16:05:20;8.68;;;4.20;;
31306;SDS011;17935;51.120;13.132;2023-05-29T16:07:46;9.65;;;3.90;;
31306;SDS011;17935;51.120;13.132;2023-05-29T16:10:13;7.35;;;3.58;;
31306;SDS011;17935;51.120;13.132;2023-05-29T16:12:41;8.68;;;3.70;;
31306;SDS011;17935;51.120;13.132;2023-05-29T16:15:07;7.82;;;3.70;;
31306;SDS011;17935;51.120;13.132;2023-05-29T16:17:33;9.57;;;3.63;;
31306;SDS011;17935;51.120;13.132;2023-05-29T16:19:59;6.10;;;3.30;;
31306;SDS011;17935;51.120;13.132;2023-05-29T16:22:25;7.40;;;3.78;;
31306;SDS011;17935;51.120;13.132;2023-05-29T16:24:51;4.63;;;2.97;;
31306;SDS011;17935;51.120;13.132;2023-05-29T16:27:17;9.02;;;3.70;;
31306;SDS011;17935;51.120;13.132;2023-05-29T16:29:44;6.63;;;3.67;;
31306;SDS011;17935;51.120;13.132;2023-05-29T16:32:10;5.95;;;3.28;;
31306;SDS011;17935;51.120;13.132;2023-05-29T16:34:36;6.32;;;3.17;;
31306;SDS011;17935;51.120;13.132;2023-05-29T16:37:02;6.68;;;3.42;;
31306;SDS011;17935;51.120;13.132;2023-05-29T16:39:28;5.32;;;3.70;;
31306;SDS011;17935;51.120;13.132;2023-05-29T16:41:57;5.28;;;3.25;;
31306;SDS011;17935;51.120;13.132;2023-05-29T16:44:23;8.82;;;3.50;;
31306;SDS011;17935;51.120;13.132;2023-05-29T16:46:49;5.95;;;3.50;;
31306;SDS011;17935;51.120;13.132;2023-05-29T16:49:14;4.75;;;3.00;;
31306;SDS011;17935;51.120;13.132;2023-05-29T16:51:40;4.10;;;2.75;;
31306;SDS011;17935;51.120;13.132;2023-05-29T16:54:06;7.35;;;4.18;;
31306;SDS011;17935;51.120;13.132;2023-05-29T16:56:32;5.28;;;3.58;;
31306;SDS011;17935;51.120;13.132;2023-05-29T16:58:58;6.93;;;3.20;;
31306;SDS011;17935;51.120;13.132;2023-05-29T17:01:25;5.07;;;3.47;;
31306;SDS011;17935;51.120;13.132;2023-05-29T17:03:51;5.38;;;3.40;;
31306;SDS011;17935;51.120;13.132;2023-05-29T17:06:17;9.18;;;3.63;;
31306;SDS011;17935;51.120;13.132;2023-05-29T17:08:43;6.15;;;3.47;;
31306;SDS011;17935;51.120;13.132;2023-05-29T17:11:08;5.20;;;2.85;;
31306;SDS011;17935;51.120;13.132;2023-05-29T17:13:35;3.92;;;2.97;;
31306;SDS011;17935;51.120;13.132;2023-05-29T17:16:01;8.68;;;3.72;;
31306;SDS011;17935;51.120;13.132;2023-05-29T17:18:27;5.53;;;3.10;;
31306;SDS011;17935;51.120;13.132;2023-05-29T17:20:53;4.57;;;3.65;;
31306;SDS011;17935;51.120;13.132;2023-05-29T17:23:19;10.20;;;3.63;;
31306;SDS011;17935;51.120;13.132;2023-05-29T17:25:45;6.95;;;3.42;;
31306;SDS011;17935;51.120;13.132;2023-05-29T17:28:11;6.75;;;3.42;;
31306;SDS011;17935;51.120;13.132;2023-05-29T17:30:37;7.30;;;4.05;;
31306;SDS011;17935;51.120;13.132;2023-05-29T17:33:03;9.13;;;4.28;;
31306;SDS011;17935;51.120;13.132;2023-05-29T17:35:29;9.32;;;3.78;;
31306;SDS011;17935;51.120;13.132;2023-05-29T17:37:55;4.20;;;2.90;;
31306;SDS011;17935;51.120;13.132;2023-05-29T17:40:21;5.53;;;3.70;;
31306;SDS011;17935;51.120;13.132;2023-05-29T17:42:47;7.18;;;3.88;;
31306;SDS011;17935;51.120;13.132;2023-05-29T17:45:13;9.10;;;3.35;;
31306;SDS011;17935;51.120;13.132;2023-05-29T17:47:40;7.15;;;3.58;;
31306;SDS011;17935;51.120;13.132;2023-05-29T17:50:06;6.72;;;3.55;;
31306;SDS011;17935;51.120;13.132;2023-05-29T17:52:32;5.63;;;3.97;;
31306;SDS011;17935;51.120;13.132;2023-05-29T17:54:58;5.45;;;3.42;;
31306;SDS011;17935;51.120;13.132;2023-05-29T17:57:24;5.82;;;3.25;;
31306;SDS011;17935;51.120;13.132;2023-05-29T17:59:50;9.65;;;3.67;;
31306;SDS011;17935;51.120;13.132;2023-05-29T18:02:16;8.30;;;4.05;;
31306;SDS011;17935;51.120;13.132;2023-05-29T18:04:42;7.97;;;3.80;;
31306;SDS011;17935;51.120;13.132;2023-05-29T18:07:09;6.93;;;3.63;;
31306;SDS011;17935;51.120;13.132;2023-05-29T18:09:36;9.18;;;4.40;;
31306;SDS011;17935;51.120;13.132;2023-05-29T18:12:02;9.40;;;4.30;;
31306;SDS011;17935;51.120;13.132;2023-05-29T18:14:29;5.88;;;3.13;;
31306;SDS011;17935;51.120;13.132;2023-05-29T18:16:55;8.48;;;3.90;;
31306;SDS011;17935;51.120;13.132;2023-05-29T18:19:21;4.93;;;3.45;;
31306;SDS011;17935;51.120;13.132;2023-05-29T18:21:47;10.20;;;3.58;;
31306;SDS011;17935;51.120;13.132;2023-05-29T18:24:13;9.30;;;4.15;;
31306;SDS011;17935;51.120;13.132;2023-05-29T18:26:40;6.53;;;3.22;;
31306;SDS011;17935;51.120;13.132;2023-05-29T18:29:08;9.77;;;4.05;;
31306;SDS011;17935;51.120;13.132;2023-05-29T18:31:34;11.18;;;4.03;;
31306;SDS011;17935;51.120;13.132;2023-05-29T18:34:00;9.00;;;3.80;;
31306;SDS011;17935;51.120;13.132;2023-05-29T18:36:28;8.75;;;3.90;;
31306;SDS011;17935;51.120;13.132;2023-05-29T18:38:54;6.40;;;4.00;;
31306;SDS011;17935;51.120;13.132;2023-05-29T18:41:20;9.52;;;4.05;;
31306;SDS011;17935;51.120;13.132;2023-05-29T18:43:47;6.53;;;3.78;;
31306;SDS011;17935;51.120;13.132;2023-05-29T18:46:13;6.70;;;4.22;;
31306;SDS011;17935;51.120;13.132;2023-05-29T18:48:39;6.78;;;3.92;;
31306;SDS011;17935;51.120;13.132;2023-05-29T18:51:05;5.30;;;3.88;;
31306;SDS011;17935;51.120;13.132;2023-05-29T18:53:31;8.20;;;4.35;;
31306;SDS011;17935;51.120;13.132;2023-05-29T18:55:57;7.70;;;4.20;;